createdAt,value
2019-02-07T00:00:00.966Z,6.72
2019-02-07T00:03:04.812Z,6.75
2019-02-07T00:06:08.131Z,6.76
2019-02-07T00:09:11.510Z,6.80
2019-02-07T00:12:14.886Z,6.79
2019-02-07T00:15:17.796Z,6.75
2019-02-07T00:18:21.400Z,6.76
2019-02-07T00:21:25.084Z,6.73
2019-02-07T00:24:29.732Z,6.74
2019-02-07T00:27:33.531Z,6.79
2019-02-07T00:30:37.325Z,6.75
2019-02-07T00:33:40.601Z,6.77
2019-02-07T00:36:43.927Z,6.76
2019-02-07T00:39:46.859Z,6.76
2019-02-07T00:42:50.379Z,6.70
2019-02-07T00:45:53.319Z,6.74
2019-02-07T00:48:57.012Z,6.73
2019-02-07T00:52:00.039Z,6.68
2019-02-07T00:55:06.468Z,6.74
2019-02-07T00:58:09.396Z,6.70
2019-02-07T01:01:12.335Z,6.72
2019-02-07T01:04:15.624Z,6.68
2019-02-07T01:07:18.831Z,6.74
2019-02-07T01:10:24.070Z,6.69
2019-02-07T01:13:26.994Z,6.76
2019-02-07T01:16:30.298Z,6.78
2019-02-07T01:19:34.073Z,6.75
2019-02-07T01:22:36.994Z,6.66
2019-02-07T01:25:40.436Z,6.66
2019-02-07T01:28:43.457Z,6.72
2019-02-07T01:31:46.388Z,6.60
2019-02-07T01:34:49.311Z,6.58
2019-02-07T01:37:52.313Z,6.47
2019-02-07T01:40:55.244Z,6.46
2019-02-07T01:43:58.667Z,6.38
2019-02-07T01:47:01.645Z,6.30
2019-02-07T01:50:07.188Z,6.26
2019-02-07T01:53:10.145Z,6.29
2019-02-07T01:56:13.516Z,6.17
2019-02-07T01:59:16.477Z,6.10
2019-02-07T02:02:19.420Z,6.03
2019-02-07T02:05:22.346Z,6.06
2019-02-07T02:08:25.629Z,6.04
2019-02-07T02:11:28.968Z,6.11
2019-02-07T02:14:31.876Z,6.06
2019-02-07T02:17:34.989Z,5.98
2019-02-07T02:20:38.339Z,6.08
2019-02-07T02:23:42.121Z,5.96
2019-02-07T02:26:45.423Z,5.96
2019-02-07T02:29:48.640Z,6.06
2019-02-07T02:32:51.546Z,5.96
2019-02-07T02:35:55.280Z,5.90
2019-02-07T02:38:58.193Z,5.88
2019-02-07T02:42:01.122Z,5.83
2019-02-07T02:45:05.836Z,5.74
2019-02-07T02:48:08.940Z,5.82
2019-02-07T02:51:11.880Z,5.80
2019-02-07T02:54:33.141Z,5.77
2019-02-07T02:57:36.062Z,5.82
2019-02-07T03:01:04.914Z,5.73
2019-02-07T03:04:14.817Z,5.76
2019-02-07T03:07:29.316Z,5.70
2019-02-07T03:10:50.929Z,5.73
2019-02-07T03:14:12.352Z,5.80
2019-02-07T03:17:50.613Z,5.79
2019-02-07T03:21:31.737Z,5.77
2019-02-07T03:24:53.064Z,5.72
2019-02-07T03:28:19.322Z,5.77
2019-02-07T03:31:47.672Z,5.74
2019-02-07T03:34:57.415Z,5.74
2019-02-07T03:38:20.479Z,5.75
2019-02-07T03:41:49.214Z,5.89
2019-02-07T03:45:11.600Z,5.79
2019-02-07T03:48:37.270Z,5.69
2019-02-07T03:51:57.219Z,5.80
2019-02-07T03:55:11.045Z,5.83
2019-02-07T03:58:32.311Z,5.80
2019-02-07T04:01:56.092Z,5.87
2019-02-07T04:05:18.977Z,5.91
2019-02-07T04:08:40.332Z,5.95
2019-02-07T04:12:12.536Z,5.86
2019-02-07T04:15:41.275Z,5.99
2019-02-07T04:19:03.803Z,5.99
2019-02-07T04:22:23.112Z,6.01
2019-02-07T04:25:48.789Z,6.06
2019-02-07T04:29:17.344Z,6.10
2019-02-07T04:32:45.857Z,6.13
2019-02-07T04:36:08.358Z,6.17
2019-02-07T04:39:33.979Z,6.24
2019-02-07T04:42:46.785Z,6.27
2019-02-07T04:45:55.804Z,6.21
2019-02-07T04:49:18.400Z,6.24
2019-02-07T04:52:59.163Z,6.26
2019-02-07T04:56:19.152Z,6.28
2019-02-07T04:59:45.804Z,6.30
2019-02-07T05:03:01.176Z,6.31
2019-02-07T05:06:23.809Z,6.34
2019-02-07T05:09:49.236Z,6.40
2019-02-07T05:13:16.680Z,6.35
2019-02-07T05:16:40.306Z,6.33
2019-02-07T05:20:09.965Z,6.31
2019-02-07T05:23:31.198Z,6.34
2019-02-07T05:27:12.084Z,6.27
2019-02-07T05:30:28.276Z,6.27
2019-02-07T05:33:54.328Z,6.28
2019-02-07T05:37:05.800Z,6.25
2019-02-07T05:40:38.458Z,6.24
2019-02-07T05:43:49.622Z,6.25
2019-02-07T05:47:15.168Z,6.18
2019-02-07T05:50:46.676Z,6.14
2019-02-07T05:54:04.331Z,6.15
2019-02-07T05:57:42.589Z,6.24
2019-02-07T06:01:08.274Z,6.18
2019-02-07T06:04:36.467Z,6.14
2019-02-07T06:08:01.815Z,6.22
2019-02-07T06:11:22.924Z,6.26
2019-02-07T06:14:37.733Z,6.25
2019-02-07T06:17:59.895Z,6.18
2019-02-07T06:21:19.785Z,6.14
2019-02-07T06:24:41.366Z,6.17
2019-02-07T06:27:54.043Z,6.12
2019-02-07T06:31:17.303Z,6.08
2019-02-07T06:34:38.634Z,6.07
2019-02-07T06:38:16.412Z,6.08
2019-02-07T06:41:37.703Z,6.09
2019-02-07T06:45:02.984Z,6.07
2019-02-07T06:48:18.193Z,6.13
2019-02-07T06:51:39.902Z,6.13
2019-02-07T06:55:01.335Z,6.19
2019-02-07T06:58:36.123Z,6.25
2019-02-07T07:01:57.584Z,6.42
2019-02-07T07:05:29.158Z,6.36
2019-02-07T07:08:41.257Z,6.40
2019-02-07T07:12:13.461Z,6.47
2019-02-07T07:15:26.256Z,6.62
2019-02-07T07:18:54.767Z,6.60
2019-02-07T07:22:16.125Z,6.65
2019-02-07T07:25:42.499Z,6.62
2019-02-07T07:29:14.271Z,6.65
2019-02-07T07:32:41.343Z,6.68
2019-02-07T07:36:19.643Z,6.73
2019-02-07T07:39:36.215Z,6.70
2019-02-07T07:43:07.602Z,6.66
2019-02-07T07:46:30.233Z,6.67
2019-02-07T07:49:40.169Z,6.70
2019-02-07T07:52:52.812Z,6.66
2019-02-07T07:56:14.089Z,6.73
2019-02-07T07:59:36.857Z,6.76
2019-02-07T08:02:52.157Z,6.71
2019-02-07T08:06:13.830Z,6.76
2019-02-07T08:09:35.311Z,6.73
2019-02-07T08:12:50.808Z,6.68
2019-02-07T08:16:11.156Z,6.94
2019-02-07T08:19:32.578Z,7.39
2019-02-07T08:23:07.185Z,6.89
2019-02-07T08:26:28.558Z,6.77
2019-02-07T08:29:54.504Z,6.79
2019-02-07T08:33:30.665Z,6.73
2019-02-07T08:36:52.449Z,6.82
2019-02-07T08:40:04.328Z,6.77
2019-02-07T08:43:34.587Z,6.87
2019-02-07T08:47:10.018Z,6.91
2019-02-07T08:50:31.951Z,6.91
2019-02-07T08:53:53.716Z,6.88
2019-02-07T08:57:10.736Z,6.99
2019-02-07T09:00:25.280Z,6.83
2019-02-07T09:03:57.554Z,6.99
2019-02-07T09:07:22.917Z,7.02
2019-02-07T09:10:51.515Z,6.90
2019-02-07T09:14:10.396Z,6.88
2019-02-07T09:17:48.847Z,6.78
2019-02-07T09:21:17.753Z,6.81
2019-02-07T09:24:33.002Z,6.87
2019-02-07T09:28:02.936Z,6.97
2019-02-07T09:31:25.920Z,6.93
2019-02-07T09:34:36.637Z,6.99
2019-02-07T09:37:58.553Z,7.07
2019-02-07T09:41:20.141Z,7.13
2019-02-07T09:44:55.020Z,7.13
2019-02-07T09:48:21.820Z,7.21
2019-02-07T09:51:39.252Z,7.37
2019-02-07T09:55:17.264Z,7.31
2019-02-07T09:58:38.781Z,7.27
2019-02-07T10:02:00.249Z,7.44
2019-02-07T10:05:22.480Z,7.47
2019-02-07T10:08:41.304Z,7.53
2019-02-07T10:12:02.179Z,7.63
2019-02-07T10:15:16.843Z,7.49
2019-02-07T10:18:45.758Z,7.70
2019-02-07T10:22:08.939Z,7.87
2019-02-07T10:25:30.531Z,7.84
2019-02-07T10:28:47.838Z,7.86
2019-02-07T10:32:13.348Z,8.04
2019-02-07T10:35:35.874Z,7.98
2019-02-07T10:39:01.305Z,8.26
2019-02-07T10:42:17.628Z,8.29
2019-02-07T10:45:40.279Z,8.26
2019-02-07T10:48:52.101Z,8.24
2019-02-07T10:52:08.887Z,8.24
2019-02-07T10:55:40.924Z,8.19
2019-02-07T10:59:06.305Z,8.49
2019-02-07T11:02:28.193Z,8.49
2019-02-07T11:05:51.002Z,8.31
2019-02-07T11:09:14.206Z,8.40
2019-02-07T11:12:37.871Z,8.29
2019-02-07T11:16:10.831Z,8.27
2019-02-07T11:19:46.108Z,8.38
2019-02-07T11:23:08.645Z,8.46
2019-02-07T11:26:43.606Z,8.44
2019-02-07T11:29:57.763Z,8.48
2019-02-07T11:33:23.927Z,8.54
2019-02-07T11:36:58.304Z,8.64
2019-02-07T11:40:21.169Z,8.81
2019-02-07T11:43:49.667Z,8.76
2019-02-07T11:47:12.546Z,8.93
2019-02-07T11:50:55.373Z,8.94
2019-02-07T11:54:30.176Z,8.66
2019-02-07T11:57:42.780Z,8.68
2019-02-07T12:01:00.090Z,8.76
2019-02-07T12:04:21.664Z,8.90
2019-02-07T12:07:44.376Z,8.95
2019-02-07T12:10:58.332Z,8.79
2019-02-07T12:14:31.220Z,8.84
2019-02-07T12:17:44.121Z,8.81
2019-02-07T12:21:09.754Z,8.73
2019-02-07T12:24:32.177Z,8.78
2019-02-07T12:27:48.956Z,9.01
2019-02-07T12:31:12.922Z,8.91
2019-02-07T12:34:29.839Z,8.72
2019-02-07T12:37:50.902Z,8.71
2019-02-07T12:41:13.472Z,8.67
2019-02-07T12:44:42.628Z,8.78
2019-02-07T12:48:20.286Z,8.94
2019-02-07T12:51:40.887Z,8.99
2019-02-07T12:54:55.312Z,9.00
2019-02-07T12:58:26.827Z,9.29
2019-02-07T13:01:49.266Z,9.00
2019-02-07T13:05:17.588Z,9.41
2019-02-07T13:08:37.603Z,9.09
2019-02-07T13:12:00.480Z,9.01
2019-02-07T13:15:16.463Z,9.06
2019-02-07T13:18:34.398Z,9.12
2019-02-07T13:22:02.948Z,8.88
2019-02-07T13:25:25.940Z,9.11
2019-02-07T13:28:42.951Z,9.01
2019-02-07T13:32:04.263Z,8.88
2019-02-07T13:35:36.670Z,9.30
2019-02-07T13:38:56.325Z,9.24
2019-02-07T13:42:19.208Z,9.15
2019-02-07T13:45:50.408Z,9.18
2019-02-07T13:49:11.776Z,9.39
2019-02-07T13:52:24.969Z,9.44
2019-02-07T13:55:47.348Z,9.40
2019-02-07T13:59:21.962Z,9.35
2019-02-07T14:02:47.749Z,9.32
2019-02-07T14:06:09.082Z,9.29
2019-02-07T14:09:46.897Z,9.31
2019-02-07T14:13:15.903Z,9.32
2019-02-07T14:16:47.976Z,9.20
2019-02-07T14:20:09.123Z,9.24
2019-02-07T14:23:30.372Z,9.05
2019-02-07T14:26:52.914Z,9.17
2019-02-07T14:30:21.572Z,9.33
2019-02-07T14:33:43.266Z,9.28
2019-02-07T14:37:09.912Z,9.18
2019-02-07T14:40:35.243Z,9.11
2019-02-07T14:44:00.988Z,9.17
2019-02-07T14:47:04.050Z,9.25
2019-02-07T14:50:14.914Z,9.07
2019-02-07T14:53:13.835Z,9.01
2019-02-07T14:56:17.173Z,9.03
2019-02-07T14:59:20.107Z,9.10
2019-02-07T15:02:23.074Z,8.95
2019-02-07T15:05:26.021Z,8.95
2019-02-07T15:08:29.364Z,8.94
2019-02-07T15:11:32.306Z,8.90
2019-02-07T15:14:35.280Z,8.93
2019-02-07T15:17:38.645Z,8.92
2019-02-07T15:20:42.306Z,8.94
2019-02-07T15:23:45.551Z,8.86
2019-02-07T15:26:48.848Z,8.88
2019-02-07T15:29:51.795Z,9.00
2019-02-07T15:32:54.734Z,8.90
2019-02-07T15:35:58.404Z,9.00
2019-02-07T15:39:01.348Z,8.93
2019-02-07T15:42:06.556Z,8.95
2019-02-07T15:45:11.632Z,8.84
2019-02-07T15:48:15.278Z,8.98
2019-02-07T15:51:18.493Z,8.83
2019-02-07T15:54:21.635Z,8.78
2019-02-07T15:57:25.244Z,8.79
2019-02-07T16:00:49.943Z,8.77
2019-02-07T16:04:11.233Z,8.85
2019-02-07T16:07:14.545Z,8.85
2019-02-07T16:10:17.591Z,8.84
2019-02-07T16:13:20.506Z,8.71
2019-02-07T16:16:24.867Z,8.77
2019-02-07T16:19:28.140Z,8.68
2019-02-07T16:22:31.795Z,8.65
2019-02-07T16:25:35.480Z,8.69
2019-02-07T16:28:38.878Z,8.66
2019-02-07T16:31:42.588Z,8.58
2019-02-07T16:34:46.511Z,8.57
2019-02-07T16:37:50.278Z,8.71
2019-02-07T16:40:53.253Z,8.72
2019-02-07T16:43:57.134Z,8.60
2019-02-07T16:47:00.109Z,8.63
2019-02-07T16:50:06.080Z,8.53
2019-02-07T16:53:09.777Z,8.37
2019-02-07T16:56:12.844Z,8.23
2019-02-07T16:59:16.168Z,8.17
2019-02-07T17:02:19.320Z,8.16
2019-02-07T17:05:23.500Z,8.22
2019-02-07T17:08:26.458Z,8.24
2019-02-07T17:11:29.476Z,8.22
2019-02-07T17:14:32.496Z,8.24
2019-02-07T17:17:35.526Z,8.25
2019-02-07T17:20:39.533Z,8.24
2019-02-07T17:23:42.473Z,8.26
2019-02-07T17:26:45.381Z,8.25
2019-02-07T17:29:48.436Z,8.28
2019-02-07T17:32:51.773Z,8.25
2019-02-07T17:35:54.965Z,8.23
2019-02-07T17:38:57.919Z,8.25
2019-02-07T17:42:00.926Z,8.22
2019-02-07T17:45:05.883Z,8.23
2019-02-07T17:48:09.613Z,8.18
2019-02-07T17:51:22.823Z,8.20
2019-02-07T17:54:19.165Z,8.25
2019-02-07T17:57:22.562Z,8.23
2019-02-07T18:00:42.623Z,8.25
2019-02-07T18:03:45.908Z,8.20
2019-02-07T18:06:49.315Z,8.23
2019-02-07T18:09:52.643Z,8.21
2019-02-07T18:12:55.987Z,8.23
2019-02-07T18:15:59.555Z,8.21
2019-02-07T18:19:02.499Z,8.20
2019-02-07T18:22:05.850Z,8.20
2019-02-07T18:25:09.330Z,8.26
2019-02-07T18:28:12.257Z,8.22
2019-02-07T18:31:15.200Z,8.24
2019-02-07T18:34:18.865Z,8.22
2019-02-07T18:37:22.571Z,8.22
2019-02-07T18:40:26.972Z,8.24
2019-02-07T18:43:29.912Z,8.24
2019-02-07T18:46:32.912Z,8.23
2019-02-07T18:49:35.854Z,8.16
2019-02-07T18:52:38.929Z,8.17
2019-02-07T18:55:42.283Z,8.21
2019-02-07T18:58:45.624Z,8.31
2019-02-07T19:01:48.827Z,8.15
2019-02-07T19:04:52.058Z,8.09
2019-02-07T19:07:55.437Z,8.08
2019-02-07T19:10:58.360Z,8.02
2019-02-07T19:14:01.316Z,7.99
2019-02-07T19:17:05.037Z,7.96
2019-02-07T19:20:12.685Z,7.93
2019-02-07T19:23:15.711Z,8.00
2019-02-07T19:26:18.906Z,7.92
2019-02-07T19:29:21.855Z,7.87
2019-02-07T19:32:25.096Z,7.89
2019-02-07T19:35:28.927Z,7.92
2019-02-07T19:38:32.966Z,7.92
2019-02-07T19:41:36.522Z,7.88
2019-02-07T19:44:39.875Z,7.93
2019-02-07T19:47:43.043Z,7.83
2019-02-07T19:50:46.004Z,7.88
2019-02-07T19:53:48.981Z,7.96
2019-02-07T19:56:52.281Z,7.90
2019-02-07T19:59:55.528Z,7.89
2019-02-07T20:02:58.916Z,7.92
2019-02-07T20:06:02.051Z,7.88
2019-02-07T20:09:11.072Z,7.94
2019-02-07T20:12:15.932Z,7.90
2019-02-07T20:15:26.305Z,7.92
2019-02-07T20:18:29.569Z,7.82
2019-02-07T20:21:33.021Z,7.84
2019-02-07T20:24:45.672Z,7.79
2019-02-07T20:27:41.636Z,7.81
2019-02-07T20:30:44.717Z,7.80
2019-02-07T20:33:48.117Z,7.80
2019-02-07T20:36:52.755Z,7.78
2019-02-07T20:39:55.774Z,7.81
2019-02-07T20:42:58.814Z,7.77
2019-02-07T20:46:03.252Z,7.68
2019-02-07T20:49:06.650Z,7.68
2019-02-07T20:52:10.049Z,7.72
2019-02-07T20:55:13.977Z,7.68
2019-02-07T20:58:17.032Z,7.73
2019-02-07T21:01:20.128Z,7.74
2019-02-07T21:04:23.189Z,7.75
2019-02-07T21:07:26.237Z,7.74
2019-02-07T21:10:30.945Z,7.65
2019-02-07T21:13:33.898Z,7.64
2019-02-07T21:16:36.831Z,7.79
2019-02-07T21:19:39.787Z,7.73
2019-02-07T21:22:42.792Z,7.76
2019-02-07T21:25:48.846Z,7.59
2019-02-07T21:28:51.885Z,7.59
2019-02-07T21:31:54.836Z,7.49
2019-02-07T21:34:57.745Z,7.57
2019-02-07T21:38:01.209Z,7.52
2019-02-07T21:41:04.400Z,7.58
2019-02-07T21:44:07.447Z,7.67
2019-02-07T21:47:10.478Z,7.60
2019-02-07T21:50:17.164Z,7.58
2019-02-07T21:53:21.479Z,7.61
2019-02-07T21:56:24.505Z,7.61
2019-02-07T21:59:28.271Z,7.58
2019-02-07T22:02:31.597Z,7.55
2019-02-07T22:05:35.041Z,7.61
2019-02-07T22:08:37.970Z,7.59
2019-02-07T22:11:40.896Z,7.52
2019-02-07T22:14:44.156Z,7.49
2019-02-07T22:17:47.738Z,7.61
2019-02-07T22:20:51.571Z,7.61
2019-02-07T22:23:54.868Z,7.55
2019-02-07T22:26:57.883Z,7.50
2019-02-07T22:30:00.936Z,7.57
2019-02-07T22:33:04.429Z,7.57
2019-02-07T22:36:07.638Z,7.54
2019-02-07T22:39:10.560Z,7.61
2019-02-07T22:42:14.131Z,7.61
2019-02-07T22:45:18.861Z,7.66
2019-02-07T22:48:22.377Z,7.48
2019-02-07T22:51:25.325Z,7.45
2019-02-07T22:54:28.672Z,7.43
2019-02-07T22:57:33.188Z,7.49
2019-02-07T23:01:35.527Z,7.46
2019-02-07T23:04:38.558Z,7.41
2019-02-07T23:07:41.816Z,7.39
2019-02-07T23:10:44.951Z,7.43
2019-02-07T23:13:47.883Z,7.47
2019-02-07T23:16:50.797Z,7.51
2019-02-07T23:19:54.071Z,7.35
2019-02-07T23:23:04.438Z,7.47
2019-02-07T23:26:02.832Z,7.40
2019-02-07T23:29:05.964Z,7.35
2019-02-07T23:32:08.881Z,7.37
2019-02-07T23:35:12.310Z,7.39
2019-02-07T23:38:15.603Z,7.45
2019-02-07T23:41:18.904Z,7.46
2019-02-07T23:44:21.909Z,7.43
2019-02-07T23:47:25.674Z,7.32
2019-02-07T23:50:28.944Z,7.36
2019-02-07T23:53:31.860Z,7.37
2019-02-07T23:56:34.795Z,7.36
2019-02-07T23:59:37.684Z,7.37
